Aviation Digital Data Service (ADDS)

Output produced by METARs form (0220 UTC 02 October 2014)
found at http://www.aviationweather.gov/adds/metars/
 
KBMI 012320Z 0200/0224 17010KT P6SM VCSH BKN070 
     FM020100 VRB06KT 5SM SHRA BR VCTS OVC035CB 
     FM021200 18012KT P6SM OVC040 
     FM022100 19014KT P6SM VCTS OVC035CB